Terminal Aerodrome Forecast
Issued by NWS

Home | Current Version | Previous Version | Text Only | Print | Product List | Glossary On
Versions: 1 2 3 4 5 6 7 8 9 10 11 12 13 14
598
FTUS46 KMTR 050536
TAFSJC
TAF
KSJC 050536Z 0506/0606 VRB04KT P6SM OVC025
     FM050900 15007KT P6SM OVC020
     FM051700 18005KT P6SM SCT025 BKN035
     FM052000 30010KT P6SM VCSH SCT035 BKN100
     FM060400 29005KT P6SM VCSH BKN035 OVC080=

USA.gov is the U.S. government's official web portal to all federal, state and local government web resources and services.